Accueil
METAR-TAF:

METAR-TAF

Aéroports :

Base aérienne de Batajnica

Batajnica, Serbie

latitude: 44-56-07N, longitude: 020-15-27E, altitude: 86 m

Observation

Le bulletin a été fait il y a 15 minutes, à 07:00 UTC
Vent 3 kt de ouest/nord-ouest
Température -11°C
Humidité 92%
Pression 1034 hPa
Visibilité 10 km ou plus
pas de nuages en-dessous de 1500 mètres et pas de cumulonimbus.

METAR: LYBT 240700Z 30003KT CAVOK M11/M12 Q1034 NOSIG

Heure: 08:15 (07:15 UTC)

Prévision

Le bulletin a été fait il y a 2 heures et 15 minutes, à 05:00 UTC
Prévision valable du 24 à 06 UTC au 25 à 06 UTC
Vent 8 kt de ouest/nord-ouest
Visibilité 10 km ou plus
pas de nuages en-dessous de 1500 mètres et pas de cumulonimbus.

TAF: LYBT 240500Z 2406/2506 30008KT CAVOK TXM02/2413Z TNM11/2506Z

Observations et prévisions météorologiques de plus de 4000 aéroports (messages METAR et TAF).

Les stations disponibles sont représentées par des disques jaunes et rouges sur la carte.

Passer la souris dessus pour voir le nom de la station.

Cliquer dessus pour voir les observations et prévisions météorologiques.

Pour changer de carte: cliquez sur les boutons verts avec une croix noire pour zoomer, sur le bouton vert avec un tiret pour effectuer un zoom arrière, ou sur les flèches vertes pour les cartes adjacentes.


METAR-TAF: